sensor_id;sensor_type;location;lat;lon;timestamp;P1;durP1;ratioP1;P2;durP2;ratioP2
29814;SDS011;16708;50.426;7.664;2023-02-01T00:12:43;63.40;;;19.60;;
29814;SDS011;16708;50.426;7.664;2023-02-01T00:27:21;54.50;;;17.70;;
29814;SDS011;16708;50.426;7.664;2023-02-01T00:41:57;47.40;;;16.40;;
29814;SDS011;16708;50.426;7.664;2023-02-01T00:56:32;40.50;;;15.20;;
29814;SDS011;16708;50.426;7.664;2023-02-01T01:11:10;48.80;;;17.30;;
29814;SDS011;16708;50.426;7.664;2023-02-01T01:25:46;45.20;;;16.50;;
29814;SDS011;16708;50.426;7.664;2023-02-01T01:40:23;42.00;;;15.30;;
29814;SDS011;16708;50.426;7.664;2023-02-01T01:55:01;42.80;;;15.20;;
29814;SDS011;16708;50.426;7.664;2023-02-01T02:09:39;42.10;;;14.70;;
29814;SDS011;16708;50.426;7.664;2023-02-01T02:38:53;31.20;;;12.70;;
29814;SDS011;16708;50.426;7.664;2023-02-01T02:53:31;35.90;;;11.70;;
29814;SDS011;16708;50.426;7.664;2023-02-01T03:08:09;31.80;;;10.50;;
29814;SDS011;16708;50.426;7.664;2023-02-01T03:22:46;25.80;;;8.90;;
29814;SDS011;16708;50.426;7.664;2023-02-01T03:37:24;24.50;;;8.80;;
29814;SDS011;16708;50.426;7.664;2023-02-01T03:52:02;26.30;;;8.40;;
29814;SDS011;16708;50.426;7.664;2023-02-01T04:06:41;26.10;;;7.30;;
29814;SDS011;16708;50.426;7.664;2023-02-01T04:21:17;20.20;;;6.40;;
29814;SDS011;16708;50.426;7.664;2023-02-01T04:35:55;19.70;;;5.90;;
29814;SDS011;16708;50.426;7.664;2023-02-01T04:50:33;21.70;;;5.70;;
29814;SDS011;16708;50.426;7.664;2023-02-01T05:05:11;22.50;;;5.00;;
29814;SDS011;16708;50.426;7.664;2023-02-01T05:19:50;25.50;;;6.00;;
29814;SDS011;16708;50.426;7.664;2023-02-01T05:34:24;22.00;;;6.40;;
29814;SDS011;16708;50.426;7.664;2023-02-01T05:49:01;29.40;;;7.40;;
29814;SDS011;16708;50.426;7.664;2023-02-01T06:03:38;25.80;;;8.10;;
29814;SDS011;16708;50.426;7.664;2023-02-01T06:18:13;28.80;;;7.10;;
29814;SDS011;16708;50.426;7.664;2023-02-01T06:32:46;29.50;;;6.30;;
29814;SDS011;16708;50.426;7.664;2023-02-01T06:47:24;26.70;;;5.00;;
29814;SDS011;16708;50.426;7.664;2023-02-01T07:01:52;28.10;;;4.90;;
29814;SDS011;16708;50.426;7.664;2023-02-01T07:16:30;20.60;;;4.50;;
29814;SDS011;16708;50.426;7.664;2023-02-01T07:31:09;20.20;;;4.10;;
29814;SDS011;16708;50.426;7.664;2023-02-01T07:45:47;20.30;;;3.90;;
29814;SDS011;16708;50.426;7.664;2023-02-01T08:00:26;21.50;;;3.80;;
29814;SDS011;16708;50.426;7.664;2023-02-01T08:15:04;16.80;;;3.20;;
29814;SDS011;16708;50.426;7.664;2023-02-01T08:29:42;18.60;;;3.80;;
29814;SDS011;16708;50.426;7.664;2023-02-01T08:44:20;16.20;;;3.40;;
29814;SDS011;16708;50.426;7.664;2023-02-01T08:58:59;17.60;;;3.50;;
29814;SDS011;16708;50.426;7.664;2023-02-01T09:13:36;14.00;;;3.40;;
29814;SDS011;16708;50.426;7.664;2023-02-01T09:28:08;11.90;;;3.10;;
29814;SDS011;16708;50.426;7.664;2023-02-01T09:57:22;13.20;;;4.40;;
29814;SDS011;16708;50.426;7.664;2023-02-01T10:12:00;16.80;;;3.90;;
29814;SDS011;16708;50.426;7.664;2023-02-01T10:26:39;13.90;;;3.10;;
29814;SDS011;16708;50.426;7.664;2023-02-01T10:41:17;14.30;;;2.70;;
29814;SDS011;16708;50.426;7.664;2023-02-01T10:55:46;13.10;;;2.40;;
29814;SDS011;16708;50.426;7.664;2023-02-01T11:10:23;13.80;;;2.60;;
29814;SDS011;16708;50.426;7.664;2023-02-01T11:25:02;14.50;;;2.30;;
29814;SDS011;16708;50.426;7.664;2023-02-01T11:39:39;13.80;;;2.70;;
29814;SDS011;16708;50.426;7.664;2023-02-01T12:38:06;14.20;;;2.70;;
29814;SDS011;16708;50.426;7.664;2023-02-01T12:52:41;14.20;;;3.10;;
29814;SDS011;16708;50.426;7.664;2023-02-01T13:07:17;11.50;;;2.30;;
29814;SDS011;16708;50.426;7.664;2023-02-01T13:21:56;9.80;;;1.80;;
29814;SDS011;16708;50.426;7.664;2023-02-01T13:51:12;9.90;;;1.90;;
29814;SDS011;16708;50.426;7.664;2023-02-01T14:20:27;14.80;;;2.20;;
29814;SDS011;16708;50.426;7.664;2023-02-01T14:35:05;15.10;;;2.00;;
29814;SDS011;16708;50.426;7.664;2023-02-01T15:04:21;8.20;;;2.00;;
29814;SDS011;16708;50.426;7.664;2023-02-01T15:18:59;12.00;;;1.80;;
29814;SDS011;16708;50.426;7.664;2023-02-01T15:33:34;11.10;;;1.90;;
29814;SDS011;16708;50.426;7.664;2023-02-01T15:48:14;10.50;;;1.40;;
29814;SDS011;16708;50.426;7.664;2023-02-01T16:02:52;10.40;;;1.60;;
29814;SDS011;16708;50.426;7.664;2023-02-01T16:17:26;12.00;;;1.80;;
29814;SDS011;16708;50.426;7.664;2023-02-01T16:32:05;12.10;;;2.50;;
29814;SDS011;16708;50.426;7.664;2023-02-01T17:01:13;11.00;;;2.70;;
29814;SDS011;16708;50.426;7.664;2023-02-01T17:15:40;12.90;;;2.90;;
29814;SDS011;16708;50.426;7.664;2023-02-01T17:30:12;12.70;;;2.70;;
29814;SDS011;16708;50.426;7.664;2023-02-01T17:44:41;16.30;;;3.30;;
29814;SDS011;16708;50.426;7.664;2023-02-01T17:59:18;16.80;;;3.70;;
29814;SDS011;16708;50.426;7.664;2023-02-01T18:28:31;13.60;;;4.70;;
29814;SDS011;16708;50.426;7.664;2023-02-01T18:43:07;20.90;;;5.50;;
29814;SDS011;16708;50.426;7.664;2023-02-01T18:57:45;24.30;;;6.40;;
29814;SDS011;16708;50.426;7.664;2023-02-01T19:12:23;16.30;;;5.50;;
29814;SDS011;16708;50.426;7.664;2023-02-01T19:27:00;18.10;;;4.10;;
29814;SDS011;16708;50.426;7.664;2023-02-01T19:41:38;14.80;;;3.40;;
29814;SDS011;16708;50.426;7.664;2023-02-01T19:56:14;10.40;;;3.00;;
29814;SDS011;16708;50.426;7.664;2023-02-01T20:10:41;6.50;;;2.60;;
29814;SDS011;16708;50.426;7.664;2023-02-01T20:25:18;5.50;;;2.70;;
29814;SDS011;16708;50.426;7.664;2023-02-01T20:39:54;10.40;;;2.40;;
29814;SDS011;16708;50.426;7.664;2023-02-01T20:54:32;8.10;;;2.80;;
29814;SDS011;16708;50.426;7.664;2023-02-01T21:09:10;13.20;;;3.30;;
29814;SDS011;16708;50.426;7.664;2023-02-01T21:23:43;13.20;;;3.30;;
29814;SDS011;16708;50.426;7.664;2023-02-01T21:38:21;10.00;;;3.10;;
29814;SDS011;16708;50.426;7.664;2023-02-01T21:53:00;13.50;;;3.30;;
29814;SDS011;16708;50.426;7.664;2023-02-01T22:07:38;12.00;;;3.10;;
29814;SDS011;16708;50.426;7.664;2023-02-01T22:22:14;13.30;;;3.40;;
29814;SDS011;16708;50.426;7.664;2023-02-01T22:36:49;11.30;;;3.50;;
29814;SDS011;16708;50.426;7.664;2023-02-01T22:51:26;12.20;;;3.70;;
29814;SDS011;16708;50.426;7.664;2023-02-01T23:06:03;16.80;;;4.70;;
29814;SDS011;16708;50.426;7.664;2023-02-01T23:20:42;16.90;;;4.10;;
29814;SDS011;16708;50.426;7.664;2023-02-01T23:35:21;20.30;;;4.50;;
29814;SDS011;16708;50.426;7.664;2023-02-01T23:50:00;16.10;;;4.60;;
